sensor_id;sensor_type;location;lat;lon;timestamp;P1;durP1;ratioP1;P2;durP2;ratioP2
67164;SDS011;54093;50.014;19.984;2024-03-23T00:54:52;6.40;;;5.47;;
67164;SDS011;54093;50.014;19.984;2024-03-23T01:04:13;3.80;;;3.45;;
67164;SDS011;54093;50.014;19.984;2024-03-23T01:13:34;4.40;;;4.05;;
67164;SDS011;54093;50.014;19.984;2024-03-23T01:22:55;4.55;;;4.15;;
67164;SDS011;54093;50.014;19.984;2024-03-23T01:32:16;4.00;;;3.70;;
67164;SDS011;54093;50.014;19.984;2024-03-23T01:41:40;3.97;;;3.50;;
67164;SDS011;54093;50.014;19.984;2024-03-23T01:51:03;4.03;;;3.72;;
67164;SDS011;54093;50.014;19.984;2024-03-23T02:00:25;5.15;;;4.65;;
67164;SDS011;54093;50.014;19.984;2024-03-23T02:09:48;5.30;;;4.80;;
67164;SDS011;54093;50.014;19.984;2024-03-23T02:19:10;5.32;;;4.82;;
67164;SDS011;54093;50.014;19.984;2024-03-23T02:28:31;11.60;;;7.82;;
67164;SDS011;54093;50.014;19.984;2024-03-23T02:37:53;15.10;;;7.50;;
67164;SDS011;54093;50.014;19.984;2024-03-23T02:47:20;7.18;;;5.97;;
67164;SDS011;54093;50.014;19.984;2024-03-23T02:56:46;19.55;;;9.82;;
67164;SDS011;54093;50.014;19.984;2024-03-23T03:06:07;9.75;;;7.55;;
67164;SDS011;54093;50.014;19.984;2024-03-23T03:15:29;11.90;;;7.28;;
67164;SDS011;54093;50.014;19.984;2024-03-23T03:24:50;11.70;;;8.35;;
67164;SDS011;54093;50.014;19.984;2024-03-23T03:34:11;21.27;;;11.75;;
67164;SDS011;54093;50.014;19.984;2024-03-23T03:43:32;21.35;;;9.73;;
67164;SDS011;54093;50.014;19.984;2024-03-23T03:52:54;25.50;;;13.82;;
67164;SDS011;54093;50.014;19.984;2024-03-23T04:02:15;15.95;;;9.73;;
67164;SDS011;54093;50.014;19.984;2024-03-23T04:11:36;12.02;;;9.18;;
67164;SDS011;54093;50.014;19.984;2024-03-23T04:20:57;13.32;;;9.25;;
67164;SDS011;54093;50.014;19.984;2024-03-23T04:39:52;21.40;;;9.60;;
67164;SDS011;54093;50.014;19.984;2024-03-23T04:49:13;10.88;;;8.82;;
67164;SDS011;54093;50.014;19.984;2024-03-23T04:58:37;22.52;;;10.05;;
67164;SDS011;54093;50.014;19.984;2024-03-23T05:07:59;16.70;;;10.13;;
67164;SDS011;54093;50.014;19.984;2024-03-23T05:17:20;14.63;;;9.70;;
67164;SDS011;54093;50.014;19.984;2024-03-23T05:26:42;19.95;;;12.75;;
67164;SDS011;54093;50.014;19.984;2024-03-23T05:36:03;11.73;;;8.55;;
67164;SDS011;54093;50.014;19.984;2024-03-23T05:45:25;20.15;;;11.57;;
67164;SDS011;54093;50.014;19.984;2024-03-23T05:54:46;14.35;;;9.98;;
67164;SDS011;54093;50.014;19.984;2024-03-23T06:04:07;15.07;;;9.70;;
67164;SDS011;54093;50.014;19.984;2024-03-23T06:13:28;11.70;;;7.85;;
67164;SDS011;54093;50.014;19.984;2024-03-23T06:22:50;13.57;;;9.65;;
67164;SDS011;54093;50.014;19.984;2024-03-23T06:32:12;15.32;;;10.25;;
67164;SDS011;54093;50.014;19.984;2024-03-23T06:41:33;12.93;;;9.52;;
67164;SDS011;54093;50.014;19.984;2024-03-23T06:50:57;13.32;;;9.68;;
67164;SDS011;54093;50.014;19.984;2024-03-23T07:00:19;17.63;;;10.07;;
67164;SDS011;54093;50.014;19.984;2024-03-23T07:09:40;12.70;;;9.68;;
67164;SDS011;54093;50.014;19.984;2024-03-23T07:19:01;21.73;;;9.80;;
67164;SDS011;54093;50.014;19.984;2024-03-23T07:28:23;21.05;;;10.10;;
67164;SDS011;54093;50.014;19.984;2024-03-23T07:37:44;10.68;;;9.50;;
67164;SDS011;54093;50.014;19.984;2024-03-23T07:47:05;19.17;;;9.27;;
67164;SDS011;54093;50.014;19.984;2024-03-23T07:56:29;16.77;;;8.88;;
67164;SDS011;54093;50.014;19.984;2024-03-23T08:05:51;12.52;;;8.75;;
67164;SDS011;54093;50.014;19.984;2024-03-23T08:15:12;14.10;;;8.82;;
67164;SDS011;54093;50.014;19.984;2024-03-23T08:24:34;14.82;;;9.27;;
67164;SDS011;54093;50.014;19.984;2024-03-23T08:33:55;17.00;;;10.20;;
67164;SDS011;54093;50.014;19.984;2024-03-23T08:43:16;11.38;;;9.82;;
67164;SDS011;54093;50.014;19.984;2024-03-23T08:52:37;15.48;;;9.07;;
67164;SDS011;54093;50.014;19.984;2024-03-23T09:01:59;9.57;;;8.57;;
67164;SDS011;54093;50.014;19.984;2024-03-23T09:11:20;19.23;;;8.88;;
67164;SDS011;54093;50.014;19.984;2024-03-23T09:20:41;8.18;;;7.32;;
67164;SDS011;54093;50.014;19.984;2024-03-23T09:30:03;7.90;;;7.18;;
67164;SDS011;54093;50.014;19.984;2024-03-23T09:39:25;6.28;;;5.38;;
67164;SDS011;54093;50.014;19.984;2024-03-23T09:48:47;7.07;;;4.45;;
67164;SDS011;54093;50.014;19.984;2024-03-23T09:58:08;2.95;;;1.95;;
67164;SDS011;54093;50.014;19.984;2024-03-23T10:07:33;5.43;;;1.88;;
67164;SDS011;54093;50.014;19.984;2024-03-23T10:16:54;2.08;;;1.98;;
67164;SDS011;54093;50.014;19.984;2024-03-23T10:26:22;3.63;;;2.22;;
67164;SDS011;54093;50.014;19.984;2024-03-23T10:35:46;2.30;;;2.20;;
67164;SDS011;54093;50.014;19.984;2024-03-23T10:45:08;2.08;;;1.98;;
67164;SDS011;54093;50.014;19.984;2024-03-23T10:54:29;2.60;;;2.40;;
67164;SDS011;54093;50.014;19.984;2024-03-23T11:03:51;2.63;;;2.42;;
67164;SDS011;54093;50.014;19.984;2024-03-23T11:13:22;8.02;;;2.70;;
67164;SDS011;54093;50.014;19.984;2024-03-23T11:22:44;2.53;;;2.03;;
67164;SDS011;54093;50.014;19.984;2024-03-23T11:32:09;2.28;;;2.08;;
67164;SDS011;54093;50.014;19.984;2024-03-23T11:41:31;1.80;;;1.70;;
67164;SDS011;54093;50.014;19.984;2024-03-23T11:50:55;2.17;;;1.92;;
67164;SDS011;54093;50.014;19.984;2024-03-23T12:00:23;1.83;;;1.73;;
67164;SDS011;54093;50.014;19.984;2024-03-23T12:09:45;2.47;;;2.27;;
67164;SDS011;54093;50.014;19.984;2024-03-23T12:19:07;5.88;;;2.45;;
67164;SDS011;54093;50.014;19.984;2024-03-23T12:28:28;2.78;;;1.90;;
67164;SDS011;54093;50.014;19.984;2024-03-23T12:37:49;1.65;;;1.55;;
67164;SDS011;54093;50.014;19.984;2024-03-23T12:47:30;1.40;;;1.40;;
67164;SDS011;54093;50.014;19.984;2024-03-23T12:56:51;1.52;;;1.42;;
67164;SDS011;54093;50.014;19.984;2024-03-23T13:06:11;3.00;;;1.30;;
67164;SDS011;54093;50.014;19.984;2024-03-23T13:15:32;1.42;;;1.42;;
67164;SDS011;54093;50.014;19.984;2024-03-23T13:24:54;1.70;;;1.70;;
67164;SDS011;54093;50.014;19.984;2024-03-23T13:34:15;2.22;;;1.80;;
67164;SDS011;54093;50.014;19.984;2024-03-23T13:43:37;2.15;;;1.88;;
67164;SDS011;54093;50.014;19.984;2024-03-23T13:52:58;2.55;;;1.90;;
67164;SDS011;54093;50.014;19.984;2024-03-23T14:02:19;1.85;;;1.75;;
67164;SDS011;54093;50.014;19.984;2024-03-23T14:11:40;1.00;;;1.00;;
67164;SDS011;54093;50.014;19.984;2024-03-23T14:21:04;4.18;;;1.40;;
67164;SDS011;54093;50.014;19.984;2024-03-23T14:30:25;1.55;;;1.45;;
67164;SDS011;54093;50.014;19.984;2024-03-23T14:39:46;2.42;;;1.60;;
67164;SDS011;54093;50.014;19.984;2024-03-23T14:49:08;7.35;;;1.30;;
67164;SDS011;54093;50.014;19.984;2024-03-23T14:58:29;3.60;;;0.50;;
67164;SDS011;54093;50.014;19.984;2024-03-23T15:07:50;1.42;;;0.82;;
67164;SDS011;54093;50.014;19.984;2024-03-23T15:17:11;0.88;;;0.85;;
67164;SDS011;54093;50.014;19.984;2024-03-23T15:26:32;0.77;;;0.77;;
67164;SDS011;54093;50.014;19.984;2024-03-23T15:35:53;1.20;;;0.50;;
67164;SDS011;54093;50.014;19.984;2024-03-23T15:45:14;1.20;;;0.80;;
67164;SDS011;54093;50.014;19.984;2024-03-23T15:54:35;2.28;;;0.93;;
67164;SDS011;54093;50.014;19.984;2024-03-23T16:03:57;1.27;;;1.27;;
67164;SDS011;54093;50.014;19.984;2024-03-23T16:13:18;2.30;;;1.58;;
67164;SDS011;54093;50.014;19.984;2024-03-23T16:22:40;1.40;;;1.40;;
67164;SDS011;54093;50.014;19.984;2024-03-23T16:32:01;0.90;;;0.90;;
67164;SDS011;54093;50.014;19.984;2024-03-23T16:41:22;1.38;;;1.27;;
67164;SDS011;54093;50.014;19.984;2024-03-23T16:50:43;0.90;;;0.90;;
67164;SDS011;54093;50.014;19.984;2024-03-23T17:00:04;1.02;;;1.02;;
67164;SDS011;54093;50.014;19.984;2024-03-23T17:09:26;1.38;;;1.25;;
67164;SDS011;54093;50.014;19.984;2024-03-23T17:18:48;4.18;;;1.08;;
67164;SDS011;54093;50.014;19.984;2024-03-23T17:28:11;1.20;;;1.10;;
67164;SDS011;54093;50.014;19.984;2024-03-23T17:37:33;1.33;;;1.30;;
67164;SDS011;54093;50.014;19.984;2024-03-23T17:46:54;2.10;;;2.00;;
67164;SDS011;54093;50.014;19.984;2024-03-23T17:56:15;1.30;;;1.30;;
67164;SDS011;54093;50.014;19.984;2024-03-23T18:05:36;1.10;;;1.10;;
67164;SDS011;54093;50.014;19.984;2024-03-23T18:14:57;1.90;;;1.20;;
67164;SDS011;54093;50.014;19.984;2024-03-23T18:24:21;1.45;;;1.35;;
67164;SDS011;54093;50.014;19.984;2024-03-23T18:33:42;4.03;;;1.30;;
67164;SDS011;54093;50.014;19.984;2024-03-23T18:43:03;1.80;;;1.70;;
67164;SDS011;54093;50.014;19.984;2024-03-23T18:52:24;5.28;;;1.58;;
67164;SDS011;54093;50.014;19.984;2024-03-23T19:01:45;0.85;;;0.85;;
67164;SDS011;54093;50.014;19.984;2024-03-23T19:11:06;3.10;;;2.90;;
67164;SDS011;54093;50.014;19.984;2024-03-23T19:20:28;2.92;;;2.60;;
67164;SDS011;54093;50.014;19.984;2024-03-23T19:29:49;2.63;;;2.53;;
67164;SDS011;54093;50.014;19.984;2024-03-23T19:39:10;7.85;;;2.90;;
67164;SDS011;54093;50.014;19.984;2024-03-23T19:48:33;4.65;;;2.97;;
67164;SDS011;54093;50.014;19.984;2024-03-23T19:57:54;5.15;;;4.75;;
67164;SDS011;54093;50.014;19.984;2024-03-23T20:07:15;4.47;;;4.18;;
67164;SDS011;54093;50.014;19.984;2024-03-23T20:16:36;4.43;;;4.03;;
67164;SDS011;54093;50.014;19.984;2024-03-23T20:26:00;6.90;;;4.65;;
67164;SDS011;54093;50.014;19.984;2024-03-23T20:35:21;5.55;;;3.45;;
67164;SDS011;54093;50.014;19.984;2024-03-23T20:44:42;4.70;;;4.40;;
67164;SDS011;54093;50.014;19.984;2024-03-23T20:54:03;2.95;;;2.75;;
67164;SDS011;54093;50.014;19.984;2024-03-23T21:03:25;2.50;;;2.30;;
67164;SDS011;54093;50.014;19.984;2024-03-23T21:12:46;2.63;;;2.50;;
67164;SDS011;54093;50.014;19.984;2024-03-23T21:22:07;4.25;;;2.97;;
67164;SDS011;54093;50.014;19.984;2024-03-23T21:31:28;3.88;;;3.67;;
67164;SDS011;54093;50.014;19.984;2024-03-23T21:40:56;5.32;;;3.10;;
67164;SDS011;54093;50.014;19.984;2024-03-23T21:50:21;3.63;;;3.33;;
67164;SDS011;54093;50.014;19.984;2024-03-23T21:59:42;2.30;;;2.20;;
67164;SDS011;54093;50.014;19.984;2024-03-23T22:09:03;1.60;;;1.60;;
67164;SDS011;54093;50.014;19.984;2024-03-23T22:18:24;1.90;;;1.80;;
67164;SDS011;54093;50.014;19.984;2024-03-23T22:27:45;1.88;;;1.77;;
67164;SDS011;54093;50.014;19.984;2024-03-23T22:37:07;1.30;;;1.20;;
67164;SDS011;54093;50.014;19.984;2024-03-23T22:46:30;1.58;;;1.50;;
67164;SDS011;54093;50.014;19.984;2024-03-23T22:55:52;2.30;;;1.08;;
67164;SDS011;54093;50.014;19.984;2024-03-23T23:05:14;1.70;;;1.60;;
67164;SDS011;54093;50.014;19.984;2024-03-23T23:14:35;1.48;;;1.38;;
67164;SDS011;54093;50.014;19.984;2024-03-23T23:23:56;2.88;;;1.50;;
67164;SDS011;54093;50.014;19.984;2024-03-23T23:33:17;1.17;;;1.17;;
67164;SDS011;54093;50.014;19.984;2024-03-23T23:42:38;3.80;;;1.50;;
67164;SDS011;54093;50.014;19.984;2024-03-23T23:51:59;1.73;;;1.63;;
